Time;durP1;ratioP1;P1;durP2;ratioP2;P2;SDS_P1;SDS_P2;PMS_P1;PMS_P2;Temp;Humidity;BMP_temperature;BMP_pressure;BME280_temperature;BME280_humidity;BME280_pressure;Samples;Min_cycle;Max_cycle;Signal;HPM_P1;HPM_P2
2022/04/23 00:00:07;;;;;;;1.73;1.63;;;15.50;99.90;;;;;;5052027;28;20200;-68
2022/04/23 00:02:34;;;;;;;1.50;1.45;;;15.40;99.90;;;;;;5045423;28;20216;-70
2022/04/23 00:05:01;;;;;;;1.70;1.60;;;15.50;99.90;;;;;;5051275;28;20223;-69
2022/04/23 00:07:27;;;;;;;1.70;1.60;;;15.40;99.90;;;;;;5050185;28;20318;-68
2022/04/23 00:09:54;;;;;;;2.00;1.80;;;15.40;99.90;;;;;;5050390;28;20291;-68
2022/04/23 00:12:23;;;;;;;1.85;1.75;;;15.40;99.90;;;;;;5047574;28;20204;-65
2022/04/23 00:14:50;;;;;;;1.83;1.73;;;15.40;99.90;;;;;;5049882;28;20271;-70
2022/04/23 00:17:18;;;;;;;1.80;1.70;;;15.30;99.90;;;;;;5049386;28;20311;-69
2022/04/23 00:19:46;;;;;;;2.00;1.90;;;15.40;99.90;;;;;;5047218;28;20219;-67
2022/04/23 00:22:15;;;;;;;2.00;1.90;;;15.30;99.90;;;;;;5050645;28;20239;-68
2022/04/23 00:24:42;;;;;;;1.80;1.70;;;15.30;99.90;;;;;;5051418;28;20662;-68
2022/04/23 00:27:09;;;;;;;1.92;1.70;;;15.20;99.90;;;;;;5052830;28;20204;-68
2022/04/23 00:29:36;;;;;;;1.70;1.70;;;15.20;99.90;;;;;;5054393;28;20218;-67
2022/04/23 00:32:03;;;;;;;1.90;1.80;;;15.20;99.90;;;;;;5069088;28;20208;-70
2022/04/23 00:34:32;;;;;;;2.58;1.63;;;15.20;99.90;;;;;;5070070;28;20227;-66
2022/04/23 00:36:58;;;;;;;2.30;1.60;;;15.20;99.90;;;;;;5062722;28;20270;-69
2022/04/23 00:39:25;;;;;;;2.00;1.90;;;15.10;99.90;;;;;;5053182;28;20764;-69
2022/04/23 00:41:57;;;;;;;1.90;1.80;;;15.10;99.90;;;;;;5036700;28;20629;-68
2022/04/23 00:44:24;;;;;;;1.70;1.60;;;15.10;99.90;;;;;;5031657;28;20543;-68
2022/04/23 00:46:51;;;;;;;1.88;1.77;;;15.00;99.90;;;;;;5032122;28;20212;-68
2022/04/23 00:49:18;;;;;;;1.90;1.70;;;15.00;99.90;;;;;;5030946;28;20589;-68
2022/04/23 00:51:46;;;;;;;1.80;1.70;;;15.00;99.90;;;;;;5032143;28;20300;-67
2022/04/23 00:54:13;;;;;;;2.10;1.98;;;15.00;99.90;;;;;;5031767;28;20292;-67
2022/04/23 00:56:41;;;;;;;2.00;1.90;;;14.90;99.90;;;;;;5031682;28;20208;-70
2022/04/23 00:59:09;;;;;;;2.00;1.90;;;14.90;99.90;;;;;;5032423;28;20229;-68
2022/04/23 01:01:37;;;;;;;1.80;1.70;;;14.90;99.90;;;;;;5035739;28;20728;-71
2022/04/23 01:04:06;;;;;;;2.00;1.90;;;14.90;99.90;;;;;;5046817;28;20330;-67
2022/04/23 01:06:34;;;;;;;1.90;1.80;;;14.90;99.90;;;;;;5052401;28;20651;-66
2022/04/23 01:09:10;;;;;;;1.90;1.80;;;14.90;99.90;;;;;;5050700;28;20228;-67
2022/04/23 01:11:38;;;;;;;1.80;1.70;;;14.90;99.90;;;;;;5035786;28;20255;-67
2022/04/23 01:14:05;;;;;;;1.60;1.50;;;14.90;99.90;;;;;;5031175;28;20671;-67
2022/04/23 01:16:32;;;;;;;1.60;1.50;;;14.80;99.90;;;;;;5031613;28;20201;-67
2022/04/23 01:18:59;;;;;;;1.50;1.45;;;14.90;99.90;;;;;;5030311;28;20680;-69
2022/04/23 01:21:28;;;;;;;1.77;1.67;;;14.80;99.90;;;;;;5031598;28;20295;-68
2022/04/23 01:23:57;;;;;;;2.88;1.85;;;14.80;99.90;;;;;;5031134;28;20221;-69
2022/04/23 01:26:26;;;;;;;1.83;1.73;;;14.80;99.90;;;;;;5031594;28;20255;-67
2022/04/23 01:28:54;;;;;;;1.95;1.75;;;14.80;99.90;;;;;;5033834;28;20260;-67
2022/04/23 01:31:21;;;;;;;1.55;1.52;;;14.80;99.90;;;;;;5035133;28;20193;-68
2022/04/23 01:33:48;;;;;;;1.90;1.80;;;14.80;99.90;;;;;;5034949;28;20309;-68
2022/04/23 01:36:15;;;;;;;1.75;1.70;;;14.80;99.90;;;;;;5034960;28;20670;-69
2022/04/23 01:38:45;;;;;;;1.80;1.70;;;14.60;99.90;;;;;;5034262;28;20263;-69
2022/04/23 01:41:12;;;;;;;1.67;1.58;;;14.50;99.90;;;;;;5034467;28;20208;-67
2022/04/23 01:43:39;;;;;;;1.80;1.70;;;14.40;99.90;;;;;;5034678;28;20319;-69
2022/04/23 01:46:06;;;;;;;1.83;1.73;;;14.30;99.90;;;;;;5034700;28;20296;-69
2022/04/23 01:48:33;;;;;;;1.40;1.40;;;14.00;99.90;;;;;;5033682;28;20235;-69
2022/04/23 01:51:00;;;;;;;1.90;1.80;;;14.00;99.90;;;;;;5034337;28;20236;-67
2022/04/23 01:53:27;;;;;;;1.90;1.80;;;13.90;99.90;;;;;;5034271;28;20662;-68
2022/04/23 01:55:56;;;;;;;1.90;1.80;;;13.50;99.90;;;;;;5034320;28;20209;-68
2022/04/23 01:58:23;;;;;;;1.88;1.77;;;13.30;99.90;;;;;;5033333;28;20252;-68
2022/04/23 02:00:51;;;;;;;1.88;1.77;;;13.20;99.90;;;;;;5034303;28;20291;-67
2022/04/23 02:03:17;;;;;;;1.80;1.70;;;13.10;99.90;;;;;;5036470;28;20259;-67
2022/04/23 02:05:44;;;;;;;1.83;1.73;;;13.10;99.90;;;;;;5053921;28;20264;-69
2022/04/23 02:08:15;;;;;;;2.03;1.88;;;13.10;99.90;;;;;;5052993;28;20311;-67
2022/04/23 02:10:43;;;;;;;1.77;1.73;;;12.90;99.90;;;;;;5052714;28;20650;-67
2022/04/23 02:13:12;;;;;;;1.80;1.70;;;12.90;99.90;;;;;;5034129;28;20200;-69
2022/04/23 02:15:40;;;;;;;2.20;2.10;;;12.90;99.90;;;;;;5042300;28;20650;-67
2022/04/23 02:18:08;;;;;;;1.77;1.67;;;12.70;99.90;;;;;;5043640;28;20323;-68
2022/04/23 02:20:35;;;;;;;1.92;1.83;;;12.60;99.90;;;;;;5034514;28;20223;-69
2022/04/23 02:23:02;;;;;;;2.10;2.00;;;12.60;99.90;;;;;;5044907;28;20204;-68
2022/04/23 02:25:29;;;;;;;2.20;2.10;;;12.50;99.90;;;;;;5051585;28;20200;-69
2022/04/23 02:27:55;;;;;;;2.30;2.20;;;12.40;99.90;;;;;;5048900;28;20271;-68
2022/04/23 02:30:24;;;;;;;2.08;1.98;;;12.10;99.90;;;;;;5035663;28;20292;-69
2022/04/23 02:32:51;;;;;;;1.95;1.85;;;12.00;99.90;;;;;;5035043;28;20209;-69
2022/04/23 02:35:19;;;;;;;2.10;2.00;;;12.00;99.90;;;;;;5034933;28;20236;-68
2022/04/23 02:37:47;;;;;;;1.95;1.85;;;11.90;99.90;;;;;;5033088;28;20240;-69
2022/04/23 02:40:16;;;;;;;1.90;1.80;;;11.80;99.90;;;;;;5038749;28;20204;-70
2022/04/23 02:42:43;;;;;;;2.22;2.13;;;11.90;99.90;;;;;;5050250;28;20733;-68
2022/04/23 02:45:13;;;;;;;2.28;2.17;;;11.90;99.90;;;;;;5042692;28;20224;-68
2022/04/23 02:47:45;;;;;;;2.00;1.90;;;11.80;99.90;;;;;;5033167;28;20229;-69
2022/04/23 02:50:13;;;;;;;2.25;2.15;;;11.80;99.90;;;;;;5033881;28;20212;-70
2022/04/23 02:52:42;;;;;;;2.10;2.00;;;11.80;99.90;;;;;;5033345;28;20235;-69
2022/04/23 02:55:09;;;;;;;1.80;1.70;;;11.70;99.90;;;;;;5034787;28;20262;-69
2022/04/23 02:57:36;;;;;;;1.90;1.80;;;11.70;99.90;;;;;;5038463;28;20386;-69
2022/04/23 03:00:05;;;;;;;2.00;1.90;;;11.80;99.90;;;;;;5035917;28;20623;-68
2022/04/23 03:02:36;;;;;;;2.30;2.20;;;11.80;99.90;;;;;;5034429;28;20208;-69
2022/04/23 03:05:06;;;;;;;1.80;1.80;;;11.70;99.90;;;;;;5033072;28;20229;-69
2022/04/23 03:07:33;;;;;;;2.10;2.00;;;11.70;99.90;;;;;;5032518;28;20744;-68
2022/04/23 03:10:00;;;;;;;2.20;2.10;;;11.60;99.90;;;;;;5033301;28;20231;-70
2022/04/23 03:12:27;;;;;;;2.20;2.10;;;11.60;99.90;;;;;;5032929;28;20205;-69
2022/04/23 03:14:53;;;;;;;2.20;2.10;;;11.60;99.90;;;;;;5032972;28;20295;-70
2022/04/23 03:17:20;;;;;;;2.20;2.10;;;11.60;99.90;;;;;;5032264;28;20312;-67
2022/04/23 03:19:47;;;;;;;2.00;1.90;;;11.60;99.90;;;;;;5033253;28;20379;-71
2022/04/23 03:22:16;;;;;;;2.40;2.30;;;11.60;99.90;;;;;;5032737;28;20208;-67
2022/04/23 03:24:44;;;;;;;2.20;2.10;;;11.60;99.90;;;;;;5032406;28;20225;-69
2022/04/23 03:27:11;;;;;;;2.70;2.27;;;11.50;99.90;;;;;;5032178;28;20211;-68
2022/04/23 03:29:38;;;;;;;2.08;1.98;;;11.40;99.90;;;;;;5032904;28;20709;-69
2022/04/23 03:32:06;;;;;;;2.40;2.30;;;11.40;99.90;;;;;;5032712;28;20296;-68
2022/04/23 03:34:33;;;;;;;2.45;2.35;;;11.40;99.90;;;;;;5032076;28;20200;-68
2022/04/23 03:37:00;;;;;;;2.10;2.00;;;11.40;99.90;;;;;;5031464;28;20212;-69
2022/04/23 03:39:28;;;;;;;2.10;2.00;;;11.50;99.90;;;;;;5032079;28;20219;-69
2022/04/23 03:41:55;;;;;;;2.22;2.13;;;11.50;99.90;;;;;;5032834;28;20287;-70
2022/04/23 03:44:22;;;;;;;1.95;1.85;;;11.50;99.90;;;;;;5032484;28;20315;-70
2022/04/23 03:46:49;;;;;;;2.40;2.30;;;11.50;99.90;;;;;;5032304;28;20578;-69
2022/04/23 03:49:16;;;;;;;2.45;2.35;;;11.40;99.90;;;;;;5031191;28;20252;-69
2022/04/23 03:51:42;;;;;;;2.33;2.20;;;11.40;99.90;;;;;;5032183;28;20244;-69
2022/04/23 03:54:10;;;;;;;2.28;2.17;;;11.30;99.90;;;;;;5032320;28;20211;-69
2022/04/23 03:56:38;;;;;;;2.53;2.42;;;11.30;99.90;;;;;;5032274;28;20215;-70
2022/04/23 03:59:07;;;;;;;2.30;2.20;;;11.30;99.90;;;;;;5031351;28;20225;-68
2022/04/23 04:01:34;;;;;;;2.30;2.20;;;11.20;99.90;;;;;;5032578;28;20212;-70
2022/04/23 04:04:01;;;;;;;2.55;2.35;;;11.20;99.90;;;;;;5031997;28;21747;-68
2022/04/23 04:06:28;;;;;;;2.60;2.50;;;11.10;99.90;;;;;;5032360;28;20706;-69
2022/04/23 04:08:55;;;;;;;2.63;2.53;;;11.20;99.90;;;;;;5031805;28;20231;-70
2022/04/23 04:11:22;;;;;;;2.90;2.70;;;11.20;99.90;;;;;;5032428;28;20222;-69
2022/04/23 04:13:50;;;;;;;2.80;2.60;;;11.00;99.90;;;;;;5043261;28;20208;-70
2022/04/23 04:16:19;;;;;;;2.53;2.42;;;10.90;99.90;;;;;;5064405;28;20211;-70
2022/04/23 04:18:46;;;;;;;2.40;2.30;;;11.00;99.90;;;;;;5070905;28;20230;-71
2022/04/23 04:21:14;;;;;;;2.97;2.88;;;11.00;99.90;;;;;;5067266;28;20204;-68
2022/04/23 04:23:41;;;;;;;2.60;2.50;;;11.00;99.90;;;;;;5052254;28;20228;-68
2022/04/23 04:26:09;;;;;;;2.55;2.45;;;10.90;99.90;;;;;;5032880;28;20730;-69
2022/04/23 04:28:36;;;;;;;2.60;2.50;;;10.90;99.90;;;;;;5031369;28;20702;-70
2022/04/23 04:34:00;;;;;;;2.80;2.70;;;10.80;99.90;;;;;;4971482;28;20234;-69
2022/04/23 04:36:27;;;;;;;2.85;2.75;;;10.80;99.90;;;;;;5044640;28;20242;-69
2022/04/23 04:38:54;;;;;;;2.90;2.80;;;10.90;99.90;;;;;;5077217;22;20265;-64
2022/04/23 04:41:21;;;;;;;2.95;2.85;;;10.70;99.90;;;;;;5058479;28;20248;-64
2022/04/23 04:43:48;;;;;;;3.08;2.90;;;10.70;99.90;;;;;;5061819;28;20223;-64
2022/04/23 04:46:16;;;;;;;3.00;2.90;;;10.70;99.90;;;;;;5074164;28;21004;-65
2022/04/23 04:48:43;;;;;;;2.70;2.60;;;10.70;99.90;;;;;;5052174;28;20300;-65
2022/04/23 04:51:10;;;;;;;2.95;2.75;;;10.70;99.90;;;;;;5040234;28;20206;-65
2022/04/23 04:53:37;;;;;;;2.50;2.40;;;10.80;99.90;;;;;;5040047;28;20289;-65
2022/04/23 04:56:05;;;;;;;2.30;2.20;;;10.90;99.90;;;;;;5033407;28;20232;-64
2022/04/23 04:58:32;;;;;;;2.72;2.63;;;11.00;99.90;;;;;;5038941;28;20563;-64
2022/04/23 05:00:59;;;;;;;2.35;2.25;;;11.10;99.90;;;;;;5039880;28;20295;-64
2022/04/23 05:03:27;;;;;;;2.50;2.40;;;11.10;99.90;;;;;;5039940;28;20290;-65
2022/04/23 05:05:54;;;;;;;2.50;2.40;;;11.20;99.90;;;;;;5052689;28;20295;-64
2022/04/23 05:08:21;;;;;;;2.40;2.30;;;11.30;99.90;;;;;;5039208;28;20274;-63
2022/04/23 05:10:48;;;;;;;2.50;2.40;;;11.30;99.90;;;;;;5044072;28;20232;-65
2022/04/23 05:13:15;;;;;;;2.43;2.30;;;11.40;99.90;;;;;;5042656;28;20237;-63
2022/04/23 05:15:43;;;;;;;2.60;2.50;;;11.40;99.90;;;;;;5048237;28;20284;-63
2022/04/23 05:18:10;;;;;;;2.35;2.25;;;11.40;99.90;;;;;;5048409;28;20215;-64
2022/04/23 05:20:38;;;;;;;2.58;2.40;;;11.40;99.90;;;;;;5057838;28;20290;-64
2022/04/23 05:23:06;;;;;;;2.20;2.10;;;11.40;99.90;;;;;;5060060;28;20224;-64
2022/04/23 05:25:33;;;;;;;2.50;2.40;;;11.40;99.90;;;;;;5062326;28;20213;-64
2022/04/23 05:28:00;;;;;;;2.42;2.33;;;11.40;99.90;;;;;;5053296;28;20287;-65
2022/04/23 05:30:27;;;;;;;2.88;2.50;;;11.50;99.90;;;;;;5043779;28;20205;-66
2022/04/23 05:32:54;;;;;;;2.42;2.33;;;11.40;99.90;;;;;;5037073;28;20327;-64
2022/04/23 05:35:21;;;;;;;2.33;2.22;;;11.40;99.90;;;;;;5040755;28;20320;-65
2022/04/23 05:37:49;;;;;;;2.47;2.38;;;11.40;99.90;;;;;;5042731;28;20331;-64
2022/04/23 05:40:16;;;;;;;2.30;2.20;;;11.50;99.90;;;;;;5048153;28;20285;-64
2022/04/23 05:42:43;;;;;;;2.88;2.70;;;11.50;99.90;;;;;;5043554;28;20288;-64
2022/04/23 05:45:10;;;;;;;2.67;2.58;;;11.60;99.90;;;;;;5042406;28;20319;-64
2022/04/23 05:47:40;;;;;;;2.70;2.60;;;11.60;99.90;;;;;;5044801;28;20599;-65
2022/04/23 05:50:08;;;;;;;2.30;2.20;;;11.80;99.90;;;;;;5052604;28;20250;-64
2022/04/23 05:52:37;;;;;;;2.65;2.45;;;12.00;99.90;;;;;;5047574;28;20201;-64
2022/04/23 05:55:07;;;;;;;2.78;2.67;;;12.10;99.90;;;;;;5042251;28;20200;-64
2022/04/23 05:57:34;;;;;;;2.20;2.10;;;12.10;99.90;;;;;;5039133;28;20244;-64
2022/04/23 06:00:00;;;;;;;2.38;2.28;;;12.10;99.90;;;;;;5045283;28;20359;-64
2022/04/23 06:02:27;;;;;;;2.30;2.20;;;12.20;99.90;;;;;;5041861;28;20666;-64
2022/04/23 06:04:54;;;;;;;2.35;2.25;;;12.20;99.90;;;;;;5038461;28;20351;-64
2022/04/23 06:07:21;;;;;;;2.77;2.57;;;12.40;99.90;;;;;;5045458;28;20283;-64
2022/04/23 06:09:48;;;;;;;2.53;2.33;;;12.50;99.90;;;;;;5040768;28;20272;-64
2022/04/23 06:12:16;;;;;;;2.25;2.15;;;12.60;99.90;;;;;;5046293;28;20634;-64
2022/04/23 06:14:44;;;;;;;2.88;2.78;;;12.60;99.90;;;;;;5038861;28;20215;-64
2022/04/23 06:17:12;;;;;;;3.00;2.90;;;12.60;99.90;;;;;;5035813;28;20580;-65
2022/04/23 06:19:39;;;;;;;2.70;2.60;;;12.50;99.90;;;;;;5035476;28;20716;-65
2022/04/23 06:22:06;;;;;;;2.75;2.65;;;12.50;99.90;;;;;;5038354;28;20235;-64
2022/04/23 06:24:33;;;;;;;2.70;2.60;;;12.40;99.90;;;;;;5045886;28;20279;-63
2022/04/23 06:27:00;;;;;;;2.72;2.63;;;12.50;99.90;;;;;;5043541;28;20609;-63
2022/04/23 06:29:29;;;;;;;2.70;2.60;;;12.40;99.90;;;;;;5046320;28;20303;-65
2022/04/23 06:31:55;;;;;;;3.42;2.80;;;12.50;99.90;;;;;;5038643;28;20293;-64
2022/04/23 06:34:22;;;;;;;3.20;3.00;;;12.50;99.90;;;;;;5040654;28;20201;-64
2022/04/23 06:36:49;;;;;;;3.00;2.80;;;12.30;99.90;;;;;;5047046;28;20242;-64
2022/04/23 06:39:16;;;;;;;3.38;3.17;;;12.40;99.90;;;;;;5043692;28;20228;-66
2022/04/23 06:41:43;;;;;;;3.70;3.50;;;12.40;99.90;;;;;;5042443;28;20292;-64
2022/04/23 06:44:10;;;;;;;3.30;3.10;;;12.30;99.90;;;;;;5043944;28;20291;-64
2022/04/23 06:46:38;;;;;;;3.13;2.97;;;12.40;99.90;;;;;;5047547;28;20642;-64
2022/04/23 06:49:05;;;;;;;3.13;3.00;;;12.50;99.90;;;;;;5048050;28;20231;-64
2022/04/23 06:51:32;;;;;;;3.10;3.00;;;12.60;99.90;;;;;;5043887;28;20214;-65
2022/04/23 06:53:59;;;;;;;3.20;3.10;;;12.50;99.90;;;;;;5047669;28;20223;-64
2022/04/23 06:56:26;;;;;;;3.37;3.17;;;12.60;99.90;;;;;;5041694;28;20231;-65
2022/04/23 06:58:53;;;;;;;3.05;2.95;;;12.60;99.90;;;;;;5043419;28;20303;-64
2022/04/23 07:01:20;;;;;;;3.45;3.25;;;12.60;99.90;;;;;;5057353;28;20208;-65
2022/04/23 07:03:48;;;;;;;3.28;3.15;;;12.70;99.90;;;;;;5054144;28;20201;-64
2022/04/23 07:06:16;;;;;;;3.05;2.88;;;12.80;99.90;;;;;;5049548;28;20307;-64
2022/04/23 07:08:43;;;;;;;3.03;2.90;;;12.90;99.90;;;;;;5044151;28;20595;-65
2022/04/23 07:11:10;;;;;;;3.40;3.20;;;13.00;99.90;;;;;;5041456;28;20212;-65
2022/04/23 07:13:38;;;;;;;3.42;3.15;;;13.00;99.90;;;;;;5036131;28;20228;-65
2022/04/23 07:16:06;;;;;;;3.00;2.80;;;13.10;99.90;;;;;;5045473;28;20228;-63
2022/04/23 07:18:35;;;;;;;3.17;2.97;;;13.40;99.90;;;;;;5042313;28;20228;-64
2022/04/23 07:21:03;;;;;;;3.80;3.50;;;13.50;99.90;;;;;;5044531;28;20250;-64
2022/04/23 07:26:14;;;;;;;3.30;3.15;;;13.70;99.90;;;;;;5034811;28;20235;-63
2022/04/23 07:28:42;;;;;;;2.88;2.78;;;13.80;99.90;;;;;;5047244;28;20231;-63
2022/04/23 07:31:08;;;;;;;2.53;2.42;;;13.80;99.90;;;;;;5038553;28;20231;-64
2022/04/23 07:39:05;;;;;;;2.90;2.80;;;14.50;99.90;;;;;;5045655;28;20258;-63
2022/04/23 07:41:32;;;;;;;2.60;2.50;;;14.70;99.90;;;;;;5051324;28;20185;-64
2022/04/23 07:44:00;;;;;;;2.60;2.50;;;14.90;99.90;;;;;;5049427;28;20287;-65
2022/04/23 07:46:27;;;;;;;2.40;2.30;;;15.10;99.90;;;;;;5049148;28;20231;-65
2022/04/23 07:48:53;;;;;;;2.45;2.35;;;15.20;99.90;;;;;;5046946;28;20315;-64
2022/04/23 07:51:22;;;;;;;2.40;2.30;;;15.30;99.90;;;;;;5043339;28;20291;-64
2022/04/23 07:53:49;;;;;;;2.30;2.20;;;15.50;99.90;;;;;;5036209;28;20287;-63
2022/04/23 07:56:16;;;;;;;2.15;2.05;;;15.70;99.90;;;;;;5041384;28;20211;-64
2022/04/23 07:58:43;;;;;;;2.40;2.30;;;15.80;99.90;;;;;;5042798;28;20231;-63
2022/04/23 08:01:10;;;;;;;2.45;2.10;;;15.90;99.90;;;;;;5047582;28;20296;-64
2022/04/23 08:03:37;;;;;;;2.25;2.15;;;15.90;99.90;;;;;;5037658;28;20758;-64
2022/04/23 08:06:05;;;;;;;2.25;2.15;;;15.90;99.90;;;;;;5049962;28;20262;-65
2022/04/23 08:08:33;;;;;;;2.13;2.03;;;16.00;99.90;;;;;;5038536;28;20347;-64
2022/04/23 08:11:00;;;;;;;2.30;2.20;;;16.10;99.90;;;;;;5042695;28;20568;-64
2022/04/23 08:13:27;;;;;;;2.28;2.17;;;16.10;99.90;;;;;;5043961;28;20232;-64
2022/04/23 08:15:53;;;;;;;2.20;2.10;;;16.10;99.90;;;;;;5042291;28;20280;-63
2022/04/23 08:18:20;;;;;;;2.03;1.92;;;16.10;99.90;;;;;;5043567;28;20220;-63
2022/04/23 08:20:48;;;;;;;2.28;2.17;;;16.10;99.90;;;;;;5038924;28;20656;-64
2022/04/23 08:23:16;;;;;;;2.30;2.20;;;16.20;99.90;;;;;;5043376;28;20210;-63
2022/04/23 08:25:46;;;;;;;2.10;2.00;;;16.30;99.90;;;;;;5041741;28;20228;-64
2022/04/23 08:31:00;;;;;;;2.67;2.58;;;16.30;99.90;;;;;;5045478;28;20215;-64
2022/04/23 08:33:57;;;;;;;2.40;2.30;;;16.40;99.90;;;;;;5041661;28;20291;-63
2022/04/23 08:36:15;;;;;;;2.50;2.40;;;16.40;99.90;;;;;;5041147;28;20200;-64
2022/04/23 08:38:42;;;;;;;2.10;2.00;;;16.50;99.90;;;;;;5045928;28;20785;-64
2022/04/23 08:41:11;;;;;;;2.20;2.10;;;16.50;99.90;;;;;;5046994;28;20231;-63
2022/04/23 08:43:38;;;;;;;2.10;2.00;;;16.70;99.90;;;;;;5046004;28;20212;-65
2022/04/23 08:46:05;;;;;;;2.30;2.20;;;16.70;99.90;;;;;;5039995;28;20582;-65
2022/04/23 08:48:37;;;;;;;2.00;1.90;;;16.60;99.90;;;;;;5040651;28;20270;-64
2022/04/23 08:51:07;;;;;;;2.15;2.05;;;16.70;99.90;;;;;;5039848;28;20295;-64
2022/04/23 08:53:41;;;;;;;2.40;2.20;;;16.70;99.90;;;;;;5040583;28;20199;-64
2022/04/23 08:56:09;;;;;;;2.15;2.05;;;16.70;99.90;;;;;;5032768;28;20208;-65
2022/04/23 08:58:39;;;;;;;2.10;2.00;;;16.70;99.90;;;;;;5038418;28;20684;-65
2022/04/23 09:01:06;;;;;;;2.20;2.00;;;16.80;99.90;;;;;;5033072;28;20201;-63
2022/04/23 09:03:33;;;;;;;2.00;1.90;;;16.80;99.90;;;;;;5032365;28;20638;-64
2022/04/23 09:06:00;;;;;;;2.30;2.20;;;16.90;99.90;;;;;;5031786;28;20316;-64
2022/04/23 09:08:29;;;;;;;2.13;2.03;;;16.90;99.90;;;;;;5036146;28;20578;-63
2022/04/23 09:10:56;;;;;;;2.20;2.10;;;16.90;99.90;;;;;;5039040;28;20274;-63
2022/04/23 09:13:29;;;;;;;2.15;2.05;;;17.00;99.90;;;;;;5035525;28;20204;-67
2022/04/23 09:24:20;;;;;;;1.90;1.80;;;17.00;99.90;;;;;;5039587;28;20296;-64
2022/04/23 09:27:03;;;;;;;1.75;1.70;;;17.20;99.90;;;;;;5034956;28;20307;-63
2022/04/23 09:29:31;;;;;;;1.85;1.77;;;17.30;99.90;;;;;;5042827;28;20220;-65
2022/04/23 09:32:10;;;;;;;2.00;1.90;;;17.30;99.90;;;;;;5037260;28;20212;-63
2022/04/23 09:34:37;;;;;;;1.85;1.75;;;17.40;99.90;;;;;;5038819;28;20209;-64
2022/04/23 09:37:05;;;;;;;2.03;1.92;;;17.40;99.90;;;;;;5035278;28;20235;-64
2022/04/23 09:39:34;;;;;;;2.00;1.90;;;17.40;99.90;;;;;;5035198;28;20323;-63
2022/04/23 09:42:15;;;;;;;1.92;1.83;;;17.40;99.90;;;;;;5036546;28;20201;-63
2022/04/23 09:44:44;;;;;;;1.90;1.80;;;17.50;99.90;;;;;;5036397;28;20228;-65
2022/04/23 09:47:11;;;;;;;1.67;1.65;;;17.50;99.90;;;;;;5035774;28;20336;-67
2022/04/23 09:49:40;;;;;;;2.17;2.08;;;17.40;99.90;;;;;;5039597;28;20209;-64
2022/04/23 09:52:08;;;;;;;2.00;1.90;;;17.60;99.90;;;;;;5035729;28;20378;-64
2022/04/23 09:54:36;;;;;;;1.77;1.70;;;17.80;99.90;;;;;;5035891;28;20705;-63
2022/04/23 09:57:04;;;;;;;2.00;1.90;;;18.00;99.90;;;;;;5035530;28;20200;-66
2022/04/23 09:59:32;;;;;;;1.95;1.85;;;18.00;99.90;;;;;;5036756;28;20765;-66
2022/04/23 10:02:01;;;;;;;1.80;1.70;;;18.10;99.90;;;;;;5043440;28;20201;-67
2022/04/23 10:04:29;;;;;;;2.00;1.90;;;18.00;99.90;;;;;;5055556;28;20253;-68
2022/04/23 10:06:57;;;;;;;1.60;1.60;;;18.00;99.90;;;;;;5050476;28;20296;-65
2022/04/23 10:09:28;;;;;;;1.60;1.60;;;18.10;99.90;;;;;;5039916;28;20220;-65
2022/04/23 10:12:02;;;;;;;1.60;1.60;;;18.20;99.90;;;;;;5036841;28;20296;-65
2022/04/23 10:14:35;;;;;;;1.70;1.60;;;18.40;99.90;;;;;;5045892;28;20288;-66
2022/04/23 10:17:06;;;;;;;1.60;1.60;;;18.50;99.90;;;;;;5039348;28;20750;-64
2022/04/23 10:19:34;;;;;;;1.50;1.50;;;18.60;99.90;;;;;;5040216;28;20590;-66
2022/04/23 10:22:11;;;;;;;1.77;1.70;;;18.60;99.90;;;;;;5039791;28;20240;-66
2022/04/23 10:24:47;;;;;;;1.60;1.60;;;18.80;99.90;;;;;;5035921;28;20216;-67
2022/04/23 10:27:17;;;;;;;1.70;1.60;;;19.00;99.90;;;;;;5034928;28;20220;-64
2022/04/23 10:29:44;;;;;;;1.50;1.50;;;19.00;99.90;;;;;;5031652;28;20208;-65
2022/04/23 10:32:22;;;;;;;1.45;1.45;;;19.30;99.90;;;;;;5037122;28;20316;-64
2022/04/23 10:34:49;;;;;;;1.45;1.45;;;19.60;99.90;;;;;;5034553;28;20204;-64
2022/04/23 10:37:17;;;;;;;1.73;1.63;;;19.80;99.90;;;;;;5036744;28;20280;-65
2022/04/23 10:39:45;;;;;;;1.50;1.50;;;19.90;99.90;;;;;;5033619;28;20197;-64
2022/04/23 10:42:15;;;;;;;1.58;1.58;;;20.00;99.90;;;;;;5066114;22;20222;-67
2022/04/23 10:44:44;;;;;;;1.55;1.45;;;20.00;99.90;;;;;;5067962;28;20290;-68
2022/04/23 10:47:16;;;;;;;1.52;1.52;;;20.00;99.90;;;;;;5070743;28;20651;-67
2022/04/23 10:49:44;;;;;;;1.42;1.40;;;20.00;99.90;;;;;;5070931;28;20703;-68
2022/04/23 10:52:31;;;;;;;1.58;1.58;;;20.10;99.90;;;;;;5059550;28;20239;-68
2022/04/23 10:55:01;;;;;;;1.30;1.30;;;20.20;99.90;;;;;;5055900;28;20297;-67
2022/04/23 10:57:28;;;;;;;1.30;1.30;;;20.30;99.90;;;;;;5063145;28;20210;-66
2022/04/23 10:59:56;;;;;;;1.20;1.20;;;20.40;99.90;;;;;;5064615;28;20204;-69
2022/04/23 11:02:33;;;;;;;1.33;1.33;;;20.50;99.90;;;;;;5065154;28;20230;-66
2022/04/23 11:13:27;;;;;;;1.20;1.20;;;20.80;99.90;;;;;;5065508;28;20202;-66
2022/04/23 11:16:17;;;;;;;1.05;1.05;;;20.90;99.90;;;;;;5065659;28;20202;-66
2022/04/23 11:18:45;;;;;;;1.13;1.13;;;20.80;99.90;;;;;;5063276;28;20206;-66
2022/04/23 11:21:20;;;;;;;1.60;1.60;;;20.70;99.90;;;;;;5067272;28;20294;-67
2022/04/23 11:23:48;;;;;;;1.40;1.40;;;20.70;99.90;;;;;;5065967;28;20234;-67
2022/04/23 11:26:17;;;;;;;1.80;1.70;;;20.40;99.90;;;;;;5065715;28;20254;-66
2022/04/23 11:28:44;;;;;;;1.52;1.52;;;20.00;99.90;;;;;;5061033;28;20208;-67
2022/04/23 11:31:13;;;;;;;1.75;1.65;;;19.80;99.90;;;;;;5060943;28;20210;-67
2022/04/23 11:33:51;;;;;;;1.90;1.80;;;19.80;99.90;;;;;;5059462;28;20207;-67
2022/04/23 11:36:24;;;;;;;2.15;2.05;;;19.80;99.90;;;;;;5075688;28;20201;-67
2022/04/23 11:38:51;;;;;;;2.08;1.98;;;19.70;99.90;;;;;;5083155;28;20196;-67
2022/04/23 11:41:29;;;;;;;1.55;1.55;;;19.60;99.90;;;;;;5077924;28;20341;-67
2022/04/23 11:43:56;;;;;;;2.28;2.17;;;19.50;99.90;;;;;;5069878;28;20212;-67
2022/04/23 11:46:23;;;;;;;1.95;1.85;;;19.60;99.90;;;;;;5054059;28;20310;-67
2022/04/23 11:48:51;;;;;;;2.10;2.00;;;19.70;99.90;;;;;;5054452;28;20259;-67
2022/04/23 11:51:21;;;;;;;1.75;1.75;;;19.70;99.90;;;;;;5071870;28;20231;-66
2022/04/23 11:53:58;;;;;;;2.20;2.10;;;19.70;99.90;;;;;;5068845;28;20205;-66
2022/04/23 11:56:28;;;;;;;1.75;1.65;;;19.70;99.90;;;;;;5064950;28;20200;-67
2022/04/23 11:58:57;;;;;;;1.80;1.70;;;19.70;99.90;;;;;;5063694;28;20622;-67
2022/04/23 12:01:25;;;;;;;2.10;2.00;;;19.60;99.90;;;;;;5067923;28;20223;-68
2022/04/23 12:03:53;;;;;;;2.03;1.92;;;19.40;99.90;;;;;;5061084;28;20261;-68
2022/04/23 12:06:22;;;;;;;1.92;1.83;;;19.50;99.90;;;;;;5067363;28;20225;-67
2022/04/23 12:08:49;;;;;;;1.67;1.67;;;19.50;99.90;;;;;;5065776;28;20199;-68
2022/04/23 12:11:23;;;;;;;1.85;1.75;;;19.70;99.90;;;;;;5065345;28;20223;-68
2022/04/23 12:13:50;;;;;;;1.77;1.67;;;19.70;99.90;;;;;;5064180;28;20299;-68
2022/04/23 12:16:35;;;;;;;1.80;1.70;;;19.70;99.90;;;;;;5065199;28;20290;-67
2022/04/23 12:19:02;;;;;;;1.65;1.60;;;19.70;99.90;;;;;;5065948;28;20204;-68
2022/04/23 12:21:32;;;;;;;1.00;1.00;;;19.70;99.90;;;;;;5064676;28;20952;-68
2022/04/23 12:23:59;;;;;;;1.05;1.05;;;19.70;99.90;;;;;;5064914;28;20314;-68
2022/04/23 12:26:32;;;;;;;0.90;0.90;;;19.70;99.90;;;;;;5066543;28;20578;-68
2022/04/23 12:43:26;;;;;;;1.00;1.00;;;19.60;99.90;;;;;;5065192;28;20229;-69
2022/04/23 12:46:06;;;;;;;0.82;0.82;;;19.50;99.90;;;;;;5062835;28;20235;-68
2022/04/23 12:48:34;;;;;;;1.00;1.00;;;19.50;99.90;;;;;;5063335;28;20209;-67
2022/04/23 12:51:06;;;;;;;0.88;0.88;;;19.50;99.90;;;;;;5071903;28;20941;-68
2022/04/23 12:53:38;;;;;;;1.10;1.00;;;19.60;99.90;;;;;;5067106;28;20290;-68
2022/04/23 12:56:08;;;;;;;0.90;0.90;;;19.70;99.90;;;;;;5064051;28;20290;-68
2022/04/23 12:58:35;;;;;;;0.98;0.98;;;19.90;99.90;;;;;;5061726;28;20226;-68
2022/04/23 13:01:02;;;;;;;1.00;1.00;;;20.00;99.90;;;;;;5064907;28;20326;-68
2022/04/23 13:03:35;;;;;;;1.10;1.10;;;20.00;99.90;;;;;;5064180;28;20234;-68
2022/04/23 13:06:04;;;;;;;0.80;0.80;;;20.10;99.90;;;;;;5066470;28;20292;-68
2022/04/23 13:11:25;;;;;;;1.00;1.00;;;20.30;99.90;;;;;;5063252;28;20269;-68
2022/04/23 13:13:54;;;;;;;0.80;0.80;;;20.30;99.90;;;;;;5061093;28;20203;-68
2022/04/23 13:16:23;;;;;;;0.88;0.88;;;20.20;99.90;;;;;;5060048;28;20204;-67
2022/04/23 13:18:50;;;;;;;0.93;0.93;;;20.10;99.90;;;;;;5064054;28;20692;-68
2022/04/23 13:21:17;;;;;;;0.90;0.90;;;20.20;99.90;;;;;;5058056;28;20302;-68
2022/04/23 13:23:44;;;;;;;0.90;0.90;;;19.90;99.90;;;;;;5060042;28;21005;-68
2022/04/23 13:26:11;;;;;;;1.00;1.00;;;19.90;99.90;;;;;;5057223;28;20227;-68
2022/04/23 13:28:39;;;;;;;0.80;0.80;;;19.80;99.90;;;;;;5059861;28;20207;-68
2022/04/23 13:31:07;;;;;;;0.70;0.70;;;19.90;99.90;;;;;;5062293;28;20222;-67
2022/04/23 13:33:34;;;;;;;0.90;0.90;;;19.80;99.90;;;;;;5059420;28;20207;-68
2022/04/23 13:36:01;;;;;;;0.82;0.82;;;19.80;99.90;;;;;;5062949;28;20218;-68
2022/04/23 13:38:28;;;;;;;0.88;0.88;;;19.70;99.90;;;;;;5061870;28;20228;-67
2022/04/23 13:40:55;;;;;;;0.95;0.95;;;19.70;99.90;;;;;;5073888;28;20290;-67